createdAt,value
2019-02-05T00:01:01.072Z,7.25
2019-02-05T00:03:32.927Z,6.12
2019-02-05T00:06:05.433Z,6.03
2019-02-05T00:08:37.387Z,6.28
2019-02-05T00:11:08.805Z,7.72
2019-02-05T00:13:40.437Z,5.70
2019-02-05T00:16:12.264Z,7.58
2019-02-05T00:18:43.658Z,5.70
2019-02-05T00:21:15.801Z,6.58
2019-02-05T00:23:47.318Z,4.80
2019-02-05T00:26:19.217Z,5.25
2019-02-05T00:28:50.808Z,4.92
2019-02-05T00:31:22.664Z,5.35
2019-02-05T00:33:54.680Z,6.42
2019-02-05T00:36:26.804Z,6.30
2019-02-05T00:38:58.855Z,5.28
2019-02-05T00:41:30.383Z,5.40
2019-02-05T00:44:02.191Z,6.87
2019-02-05T00:46:33.951Z,7.55
2019-02-05T00:49:06.044Z,5.80
2019-02-05T00:51:37.841Z,6.85
2019-02-05T00:54:08.901Z,7.47
2019-02-05T00:56:40.520Z,8.33
2019-02-05T00:59:12.173Z,4.65
2019-02-05T01:01:44.051Z,6.22
2019-02-05T01:04:15.629Z,6.17
2019-02-05T01:06:47.011Z,5.55
2019-02-05T01:09:18.721Z,6.50
2019-02-05T01:11:50.536Z,5.42
2019-02-05T01:14:22.114Z,5.65
2019-02-05T01:16:53.375Z,7.10
2019-02-05T01:19:25.152Z,5.42
2019-02-05T01:21:56.143Z,6.37
2019-02-05T01:24:27.807Z,7.50
2019-02-05T01:26:59.959Z,5.58
2019-02-05T01:29:31.938Z,8.18
2019-02-05T01:32:03.445Z,6.80
2019-02-05T01:34:34.463Z,7.40
2019-02-05T01:37:06.202Z,7.33
2019-02-05T01:39:38.076Z,7.55
2019-02-05T01:42:09.790Z,6.37
2019-02-05T01:44:41.605Z,7.22
2019-02-05T01:47:13.646Z,7.95
2019-02-05T01:49:44.970Z,6.92
2019-02-05T01:52:16.401Z,7.10
2019-02-05T01:54:47.972Z,9.70
2019-02-05T01:57:19.032Z,7.00
2019-02-05T01:59:50.553Z,6.85
2019-02-05T02:02:21.929Z,6.33
2019-02-05T02:04:53.276Z,6.80
2019-02-05T02:07:24.931Z,7.22
2019-02-05T02:09:56.816Z,6.83
2019-02-05T02:12:28.525Z,7.65
2019-02-05T02:15:00.329Z,8.48
2019-02-05T02:17:31.625Z,8.43
2019-02-05T02:20:03.312Z,5.20
2019-02-05T02:22:35.482Z,6.40
2019-02-05T02:25:08.500Z,6.42
2019-02-05T02:27:40.593Z,8.58
2019-02-05T02:30:18.040Z,6.95
2019-02-05T02:32:49.800Z,6.65
2019-02-05T02:35:22.873Z,8.78
2019-02-05T02:37:54.856Z,7.53
2019-02-05T02:40:26.459Z,7.05
2019-02-05T02:42:57.601Z,7.70
2019-02-05T02:45:28.959Z,7.12
2019-02-05T02:48:01.548Z,9.18
2019-02-05T02:50:32.944Z,7.65
2019-02-05T02:53:04.748Z,10.88
2019-02-05T02:55:37.095Z,9.05
2019-02-05T02:58:09.000Z,8.93
2019-02-05T03:00:40.872Z,7.90
2019-02-05T03:03:12.595Z,7.47
2019-02-05T03:05:44.698Z,7.20
2019-02-05T03:08:16.935Z,7.78
2019-02-05T03:10:48.471Z,8.93
2019-02-05T03:13:20.352Z,6.30
2019-02-05T03:15:51.788Z,7.47
2019-02-05T03:18:23.098Z,9.88
2019-02-05T03:20:54.136Z,8.83
2019-02-05T03:23:26.111Z,9.25
2019-02-05T03:25:58.137Z,8.18
2019-02-05T03:28:29.549Z,8.80
2019-02-05T03:31:01.570Z,8.15
2019-02-05T03:33:33.450Z,11.20
2019-02-05T03:36:05.249Z,10.25
2019-02-05T03:38:37.777Z,9.45
2019-02-05T03:41:10.214Z,12.10
2019-02-05T03:43:42.503Z,10.90
2019-02-05T03:46:18.916Z,9.38
2019-02-05T03:48:51.739Z,10.93
2019-02-05T03:51:59.237Z,12.23
2019-02-05T03:55:19.579Z,8.73
2019-02-05T03:58:17.634Z,9.25
2019-02-05T04:01:50.830Z,9.25
2019-02-05T04:05:32.854Z,9.40
2019-02-05T04:08:53.373Z,9.50
2019-02-05T04:12:08.842Z,7.70
2019-02-05T04:15:01.001Z,8.18
2019-02-05T04:18:08.795Z,8.43
2019-02-05T04:21:26.476Z,7.30
2019-02-05T04:24:52.502Z,8.45
2019-02-05T04:28:01.101Z,9.80
2019-02-05T04:31:36.636Z,9.33
2019-02-05T04:35:02.196Z,10.30
2019-02-05T04:38:19.462Z,10.43
2019-02-05T04:41:32.405Z,10.72
2019-02-05T04:44:44.645Z,9.15
2019-02-05T04:47:53.600Z,11.90
2019-02-05T04:51:10.024Z,10.10
2019-02-05T04:54:11.697Z,12.15
2019-02-05T04:57:18.359Z,10.25
2019-02-05T05:00:26.500Z,8.65
2019-02-05T05:03:53.656Z,13.65
2019-02-05T05:07:09.125Z,10.82
2019-02-05T05:09:59.773Z,12.28
2019-02-05T05:12:32.011Z,10.88
2019-02-05T05:15:05.702Z,10.20
2019-02-05T05:17:37.716Z,10.63
2019-02-05T05:20:12.661Z,10.72
2019-02-05T05:22:44.609Z,11.85
2019-02-05T05:25:17.936Z,10.82
2019-02-05T05:27:52.213Z,9.53
2019-02-05T05:30:23.898Z,9.98
2019-02-05T05:32:55.660Z,11.68
2019-02-05T05:35:40.221Z,9.95
2019-02-05T05:38:01.231Z,10.58
2019-02-05T05:40:32.622Z,10.63
2019-02-05T05:43:04.609Z,9.20
2019-02-05T05:45:35.887Z,9.33
2019-02-05T05:48:07.811Z,11.70
2019-02-05T05:50:38.844Z,11.28
2019-02-05T05:53:11.454Z,10.48
2019-02-05T05:55:42.806Z,12.50
2019-02-05T05:58:22.391Z,11.40
2019-02-05T06:00:47.176Z,10.55
2019-02-05T06:03:19.103Z,8.83
2019-02-05T06:05:50.177Z,11.38
2019-02-05T06:08:21.478Z,9.53
2019-02-05T06:10:53.824Z,9.78
2019-02-05T06:13:25.401Z,10.23
2019-02-05T06:15:57.583Z,9.70
2019-02-05T06:18:29.919Z,12.35
2019-02-05T06:21:02.015Z,10.75
2019-02-05T06:23:33.778Z,11.22
2019-02-05T06:26:05.514Z,10.60
2019-02-05T06:28:37.180Z,9.53
2019-02-05T06:31:09.354Z,10.60
2019-02-05T06:33:40.673Z,10.78
2019-02-05T06:36:11.765Z,10.48
2019-02-05T06:38:44.770Z,12.98
2019-02-05T06:41:16.993Z,10.43
2019-02-05T06:43:48.980Z,12.53
2019-02-05T06:46:20.303Z,10.60
2019-02-05T06:48:51.605Z,12.73
2019-02-05T06:51:23.278Z,11.88
2019-02-05T06:53:54.629Z,11.53
2019-02-05T06:56:26.115Z,12.05
2019-02-05T06:58:57.120Z,10.38
2019-02-05T07:01:28.678Z,12.70
2019-02-05T07:04:00.581Z,12.85
2019-02-05T07:06:32.515Z,12.73
2019-02-05T07:09:05.600Z,11.35
2019-02-05T07:11:36.613Z,12.88
2019-02-05T07:14:08.840Z,11.25
2019-02-05T07:16:40.379Z,14.47
2019-02-05T07:19:12.421Z,10.00
2019-02-05T07:21:44.468Z,10.60
2019-02-05T07:24:16.108Z,10.98
2019-02-05T07:26:47.767Z,12.55
2019-02-05T07:29:19.361Z,12.00
2019-02-05T07:31:51.535Z,12.63
2019-02-05T07:34:22.821Z,12.00
2019-02-05T07:36:54.941Z,13.45
2019-02-05T07:39:27.730Z,11.63
2019-02-05T07:41:58.799Z,10.95
2019-02-05T07:44:30.839Z,13.93
2019-02-05T07:47:02.386Z,14.80
2019-02-05T07:49:33.482Z,11.97
2019-02-05T07:52:05.189Z,11.73
2019-02-05T07:54:36.896Z,13.53
2019-02-05T07:57:07.892Z,14.10
2019-02-05T07:59:39.296Z,12.63
2019-02-05T08:02:10.921Z,11.28
2019-02-05T08:04:43.191Z,12.70
2019-02-05T08:07:14.656Z,10.68
2019-02-05T08:09:47.176Z,12.58
2019-02-05T08:12:18.252Z,11.83
2019-02-05T08:14:49.967Z,13.10
2019-02-05T08:17:21.485Z,12.78
2019-02-05T08:19:53.182Z,13.00
2019-02-05T08:22:24.859Z,12.20
2019-02-05T08:24:56.238Z,12.43
2019-02-05T08:27:28.031Z,12.37
2019-02-05T08:29:59.409Z,12.82
2019-02-05T08:32:30.634Z,14.40
2019-02-05T08:35:02.069Z,14.58
2019-02-05T08:37:33.399Z,14.05
2019-02-05T08:40:06.575Z,12.85
2019-02-05T08:42:37.960Z,14.30
2019-02-05T08:45:14.266Z,11.33
2019-02-05T08:47:45.153Z,13.95
2019-02-05T08:50:19.977Z,13.13
2019-02-05T08:52:52.103Z,13.40
2019-02-05T08:55:23.448Z,13.88
2019-02-05T08:57:56.831Z,15.55
2019-02-05T09:00:31.858Z,13.62
2019-02-05T09:03:03.853Z,15.25
2019-02-05T09:05:35.698Z,14.75
2019-02-05T09:08:07.624Z,16.77
2019-02-05T09:10:39.768Z,15.18
2019-02-05T09:13:12.257Z,17.80
2019-02-05T09:15:44.211Z,15.35
2019-02-05T09:18:15.840Z,17.17
2019-02-05T09:20:47.464Z,14.85
2019-02-05T09:23:18.732Z,16.52
2019-02-05T09:25:50.305Z,14.03
2019-02-05T09:28:21.623Z,14.30
2019-02-05T09:30:53.622Z,16.97
2019-02-05T09:33:25.072Z,13.45
2019-02-05T09:35:56.639Z,15.43
2019-02-05T09:38:28.390Z,14.65
2019-02-05T09:41:00.451Z,13.48
2019-02-05T09:43:33.418Z,13.53
2019-02-05T09:46:04.844Z,13.08
2019-02-05T09:48:36.920Z,16.80
2019-02-05T09:51:08.398Z,14.63
2019-02-05T09:53:40.167Z,11.68
2019-02-05T09:56:11.770Z,14.47
2019-02-05T09:58:43.903Z,12.03
2019-02-05T10:01:15.889Z,21.23
2019-02-05T10:03:47.746Z,21.23
2019-02-05T10:06:19.086Z,13.30
2019-02-05T10:08:51.201Z,15.98
2019-02-05T10:11:22.944Z,14.20
2019-02-05T10:13:54.570Z,15.20
2019-02-05T10:16:26.234Z,13.22
2019-02-05T10:18:57.833Z,12.63
2019-02-05T10:21:29.863Z,13.20
2019-02-05T10:24:01.539Z,10.63
2019-02-05T10:26:33.116Z,11.45
2019-02-05T10:29:04.919Z,12.37
2019-02-05T10:31:36.785Z,12.28
2019-02-05T10:34:08.559Z,11.97
2019-02-05T10:36:40.201Z,13.55
2019-02-05T10:39:12.525Z,11.37
2019-02-05T10:41:44.425Z,8.90
2019-02-05T10:44:16.238Z,11.90
2019-02-05T10:46:47.597Z,11.13
2019-02-05T10:49:19.990Z,11.13
2019-02-05T10:51:51.995Z,9.50
2019-02-05T10:54:23.002Z,14.37
2019-02-05T10:56:55.493Z,11.37
2019-02-05T10:59:26.894Z,9.77
2019-02-05T11:01:59.230Z,12.47
2019-02-05T11:04:30.802Z,16.27
2019-02-05T11:07:02.137Z,16.53
2019-02-05T11:09:34.300Z,9.20
2019-02-05T11:12:05.704Z,13.90
2019-02-05T11:14:37.509Z,10.43
2019-02-05T11:17:09.266Z,14.70
2019-02-05T11:19:41.081Z,11.17
2019-02-05T11:22:13.797Z,7.20
2019-02-05T11:24:44.895Z,6.43
2019-02-05T11:27:16.449Z,5.43
2019-02-05T11:29:48.805Z,5.87
2019-02-05T11:32:21.132Z,9.33
2019-02-05T11:34:52.877Z,7.00
2019-02-05T11:37:24.447Z,5.93
2019-02-05T11:39:57.025Z,7.43
2019-02-05T11:42:28.299Z,8.70
2019-02-05T11:44:59.560Z,9.50
2019-02-05T11:47:31.633Z,9.00
2019-02-05T11:50:03.865Z,12.45
2019-02-05T11:52:34.915Z,7.10
2019-02-05T11:55:07.902Z,9.80
2019-02-05T11:57:39.833Z,10.08
2019-02-05T12:00:18.778Z,11.10
2019-02-05T12:02:50.207Z,7.00
2019-02-05T12:05:21.531Z,8.60
2019-02-05T12:07:53.760Z,8.60
2019-02-05T12:10:25.564Z,10.08
2019-02-05T12:12:56.883Z,6.83
2019-02-05T12:15:29.083Z,8.58
2019-02-05T12:18:01.446Z,10.08
2019-02-05T12:20:32.975Z,9.03
2019-02-05T12:23:05.238Z,8.53
2019-02-05T12:25:37.013Z,8.35
2019-02-05T12:28:08.783Z,7.40
2019-02-05T12:30:45.060Z,10.63
2019-02-05T12:33:14.776Z,8.60
2019-02-05T12:35:46.399Z,8.23
2019-02-05T12:38:18.068Z,7.45
2019-02-05T12:40:49.796Z,8.98
2019-02-05T12:43:21.371Z,8.18
2019-02-05T12:45:52.922Z,9.23
2019-02-05T12:48:24.551Z,10.70
2019-02-05T12:50:55.684Z,9.43
2019-02-05T12:53:26.931Z,10.05
2019-02-05T12:55:58.555Z,9.25
2019-02-05T12:58:29.997Z,10.58
2019-02-05T13:01:01.783Z,8.93
2019-02-05T13:03:33.643Z,9.48
2019-02-05T13:06:05.804Z,7.62
2019-02-05T13:08:37.839Z,10.25
2019-02-05T13:11:09.495Z,8.95
2019-02-05T13:13:40.515Z,9.33
2019-02-05T13:16:12.040Z,10.25
2019-02-05T13:18:43.847Z,8.30
2019-02-05T13:21:15.496Z,11.28
2019-02-05T13:23:46.820Z,9.58
2019-02-05T13:26:18.249Z,10.10
2019-02-05T13:28:49.812Z,9.80
2019-02-05T13:31:20.797Z,8.18
2019-02-05T13:33:51.914Z,11.30
2019-02-05T13:36:24.096Z,9.33
2019-02-05T13:38:55.427Z,11.85
2019-02-05T13:41:29.212Z,7.87
2019-02-05T13:44:00.715Z,8.55
2019-02-05T13:46:32.788Z,9.58
2019-02-05T13:49:04.147Z,10.85
2019-02-05T13:51:36.599Z,7.83
2019-02-05T13:54:08.217Z,9.45
2019-02-05T13:56:39.755Z,7.70
2019-02-05T13:59:11.105Z,11.95
2019-02-05T14:01:44.647Z,9.78
2019-02-05T14:04:16.707Z,9.58
2019-02-05T14:06:50.469Z,15.53
2019-02-05T14:09:21.778Z,12.55
2019-02-05T14:11:53.240Z,9.50
2019-02-05T14:14:24.594Z,11.20
2019-02-05T14:16:56.719Z,9.00
2019-02-05T14:19:28.053Z,8.78
2019-02-05T14:21:59.754Z,10.43
2019-02-05T14:24:31.580Z,9.68
2019-02-05T14:27:03.410Z,10.48
2019-02-05T14:29:35.506Z,10.25
2019-02-05T14:32:06.956Z,11.60
2019-02-05T14:34:38.702Z,13.65
2019-02-05T14:37:10.161Z,12.10
2019-02-05T14:39:42.116Z,11.48
2019-02-05T14:42:13.883Z,11.73
2019-02-05T14:44:45.765Z,12.43
2019-02-05T14:47:17.917Z,11.20
2019-02-05T14:49:50.266Z,9.13
2019-02-05T14:52:22.202Z,11.10
2019-02-05T14:54:56.023Z,12.23
2019-02-05T14:57:27.880Z,11.60
2019-02-05T14:59:59.292Z,11.50
2019-02-05T15:02:31.313Z,12.55
2019-02-05T15:05:03.347Z,14.90
2019-02-05T15:07:35.518Z,12.00
2019-02-05T15:10:09.469Z,14.60
2019-02-05T15:12:40.845Z,12.35
2019-02-05T15:15:15.226Z,12.70
2019-02-05T15:17:46.909Z,14.07
2019-02-05T15:20:31.453Z,15.72
2019-02-05T15:23:02.951Z,13.50
2019-02-05T15:25:34.396Z,14.55
2019-02-05T15:28:07.179Z,28.50
2019-02-05T15:30:41.208Z,12.23
2019-02-05T15:33:34.210Z,12.60
2019-02-05T15:36:15.027Z,20.32
2019-02-05T15:38:46.366Z,23.10
2019-02-05T15:41:17.679Z,13.53
2019-02-05T15:43:49.515Z,12.55
2019-02-05T15:46:20.853Z,11.40
2019-02-05T15:48:52.114Z,13.90
2019-02-05T15:51:23.761Z,16.20
2019-02-05T15:53:55.731Z,14.25
2019-02-05T15:56:27.143Z,15.90
2019-02-05T15:58:58.686Z,14.80
2019-02-05T16:01:30.645Z,14.47
2019-02-05T16:04:01.917Z,11.25
2019-02-05T16:06:33.996Z,12.37
2019-02-05T16:09:08.475Z,12.43
2019-02-05T16:11:39.979Z,12.28
2019-02-05T16:14:11.613Z,14.95
2019-02-05T16:16:42.627Z,12.78
2019-02-05T16:19:14.158Z,13.38
2019-02-05T16:21:46.287Z,14.87
2019-02-05T16:24:17.876Z,14.87
2019-02-05T16:26:50.569Z,12.03
2019-02-05T16:29:22.398Z,14.45
2019-02-05T16:31:54.059Z,14.43
2019-02-05T16:34:26.202Z,12.73
2019-02-05T16:36:57.833Z,12.70
2019-02-05T16:39:30.273Z,14.35
2019-02-05T16:42:02.387Z,15.38
2019-02-05T16:44:34.027Z,13.90
2019-02-05T16:47:05.740Z,14.38
2019-02-05T16:49:37.803Z,15.58
2019-02-05T16:52:10.253Z,16.35
2019-02-05T16:54:41.838Z,15.10
2019-02-05T16:57:13.229Z,14.43
2019-02-05T16:59:44.886Z,13.05
2019-02-05T17:02:16.223Z,15.40
2019-02-05T17:04:48.047Z,16.82
2019-02-05T17:07:19.710Z,20.45
2019-02-05T17:09:51.368Z,23.92
2019-02-05T17:12:23.161Z,22.62
2019-02-05T17:14:55.120Z,19.98
2019-02-05T17:17:27.283Z,18.65
2019-02-05T17:19:58.595Z,19.52
2019-02-05T17:22:30.279Z,18.37
2019-02-05T17:25:01.633Z,17.10
2019-02-05T17:27:32.954Z,15.60
2019-02-05T17:30:08.533Z,15.28
2019-02-05T17:32:40.628Z,15.35
2019-02-05T17:35:12.410Z,16.17
2019-02-05T17:37:44.633Z,14.80
2019-02-05T17:40:18.875Z,12.85
2019-02-05T17:42:51.140Z,16.62
2019-02-05T17:45:32.285Z,16.20
2019-02-05T17:48:07.633Z,18.35
2019-02-05T17:50:39.267Z,15.72
2019-02-05T17:53:11.949Z,17.05
2019-02-05T17:55:43.894Z,13.38
2019-02-05T17:58:15.533Z,15.15
2019-02-05T18:00:52.651Z,15.88
2019-02-05T18:03:24.503Z,15.35
2019-02-05T18:05:56.770Z,14.87
2019-02-05T18:08:28.330Z,13.38
2019-02-05T18:11:00.125Z,15.55
2019-02-05T18:13:32.579Z,15.98
2019-02-05T18:16:16.269Z,18.67
2019-02-05T18:18:47.662Z,18.70
2019-02-05T18:21:19.607Z,19.73
2019-02-05T18:23:50.614Z,15.18
2019-02-05T18:26:22.203Z,15.15
2019-02-05T18:28:53.545Z,16.30
2019-02-05T18:31:26.444Z,26.77
2019-02-05T18:33:58.053Z,25.32
2019-02-05T18:36:29.905Z,25.50
2019-02-05T18:39:01.792Z,19.82
2019-02-05T18:41:34.854Z,16.85
2019-02-05T18:44:06.993Z,16.77
2019-02-05T18:46:38.924Z,18.12
2019-02-05T18:49:10.718Z,16.93
2019-02-05T18:51:42.328Z,21.23
2019-02-05T18:54:13.561Z,20.48
2019-02-05T18:56:45.233Z,19.55
2019-02-05T18:59:17.020Z,19.20
2019-02-05T19:01:48.437Z,19.05
2019-02-05T19:04:20.297Z,16.15
2019-02-05T19:06:51.934Z,16.55
2019-02-05T19:09:23.194Z,20.97
2019-02-05T19:11:55.261Z,18.20
2019-02-05T19:14:26.579Z,22.45
2019-02-05T19:16:58.494Z,22.52
2019-02-05T19:19:34.288Z,25.92
2019-02-05T19:22:05.022Z,25.85
2019-02-05T19:24:47.854Z,24.10
2019-02-05T19:27:19.741Z,19.65
2019-02-05T19:29:51.063Z,19.75
2019-02-05T19:32:26.298Z,19.37
2019-02-05T19:34:58.096Z,18.27
2019-02-05T19:37:29.727Z,21.48
2019-02-05T19:40:01.947Z,20.55
2019-02-05T19:42:33.930Z,15.38
2019-02-05T19:45:20.637Z,15.05
2019-02-05T19:47:52.018Z,13.53
2019-02-05T19:50:23.335Z,16.82
2019-02-05T19:52:55.156Z,19.40
2019-02-05T19:55:26.257Z,15.68
2019-02-05T19:57:58.848Z,14.40
2019-02-05T20:00:30.458Z,16.85
2019-02-05T20:03:01.972Z,17.00
2019-02-05T20:05:33.734Z,16.42
2019-02-05T20:08:05.737Z,15.72
2019-02-05T20:10:37.172Z,16.00
2019-02-05T20:13:10.938Z,16.30
2019-02-05T20:15:42.359Z,16.35
2019-02-05T20:18:14.760Z,15.25
2019-02-05T20:20:46.659Z,14.87
2019-02-05T20:23:18.326Z,14.40
2019-02-05T20:25:50.277Z,15.85
2019-02-05T20:28:21.839Z,15.35
2019-02-05T20:30:53.523Z,15.58
2019-02-05T20:33:25.079Z,15.10
2019-02-05T20:35:56.727Z,14.78
2019-02-05T20:38:28.373Z,18.27
2019-02-05T20:40:59.380Z,15.75
2019-02-05T20:43:30.501Z,18.37
2019-02-05T20:46:02.534Z,21.65
2019-02-05T20:48:34.483Z,28.98
2019-02-05T20:51:06.378Z,29.57
2019-02-05T20:53:37.963Z,33.28
2019-02-05T20:56:09.757Z,39.48
2019-02-05T20:58:41.391Z,34.27
2019-02-05T21:01:12.720Z,19.57
2019-02-05T21:03:44.321Z,18.67
2019-02-05T21:06:15.971Z,19.82
2019-02-05T21:08:47.068Z,18.32
2019-02-05T21:11:18.366Z,18.50
2019-02-05T21:13:50.046Z,17.32
2019-02-05T21:16:21.736Z,17.60
2019-02-05T21:18:53.849Z,20.50
2019-02-05T21:21:26.275Z,18.30
2019-02-05T21:23:57.898Z,20.15
2019-02-05T21:26:30.544Z,18.23
2019-02-05T21:29:02.404Z,19.57
2019-02-05T21:31:34.342Z,18.17
2019-02-05T21:34:15.197Z,19.32
2019-02-05T21:36:39.214Z,17.70
2019-02-05T21:39:14.464Z,20.68
2019-02-05T21:41:46.266Z,16.37
2019-02-05T21:44:17.776Z,19.30
2019-02-05T21:46:49.674Z,18.05
2019-02-05T21:49:21.356Z,17.17
2019-02-05T21:51:53.617Z,19.05
2019-02-05T21:54:25.632Z,19.95
2019-02-05T21:56:58.384Z,19.12
2019-02-05T21:59:29.653Z,21.05
2019-02-05T22:02:00.981Z,15.58
2019-02-05T22:04:32.643Z,15.38
2019-02-05T22:07:04.559Z,16.23
2019-02-05T22:09:35.962Z,16.12
2019-02-05T22:12:07.502Z,14.23
2019-02-05T22:14:39.511Z,16.30
2019-02-05T22:17:11.841Z,20.35
2019-02-05T22:19:43.199Z,19.80
2019-02-05T22:22:14.802Z,19.75
2019-02-05T22:24:46.696Z,21.73
2019-02-05T22:27:18.294Z,17.75
2019-02-05T22:29:49.310Z,19.95
2019-02-05T22:32:20.603Z,17.95
2019-02-05T22:34:51.865Z,18.52
2019-02-05T22:37:23.683Z,17.87
2019-02-05T22:39:55.243Z,18.25
2019-02-05T22:42:26.798Z,15.60
2019-02-05T22:44:58.989Z,19.23
2019-02-05T22:47:30.878Z,20.88
2019-02-05T22:50:02.706Z,20.05
2019-02-05T22:52:33.768Z,19.10
2019-02-05T22:55:06.626Z,18.77
2019-02-05T22:57:38.312Z,19.17
2019-02-05T23:00:48.472Z,21.93
2019-02-05T23:03:40.601Z,16.75
2019-02-05T23:07:06.133Z,19.73
2019-02-05T23:10:14.791Z,17.37
2019-02-05T23:12:59.743Z,17.77
2019-02-05T23:15:31.463Z,21.87
2019-02-05T23:18:04.136Z,21.60
2019-02-05T23:20:36.185Z,21.07
2019-02-05T23:23:07.660Z,20.62
2019-02-05T23:25:39.388Z,22.17
2019-02-05T23:28:11.894Z,19.55
2019-02-05T23:30:43.642Z,20.32
2019-02-05T23:33:15.783Z,20.65
2019-02-05T23:35:47.873Z,19.52
2019-02-05T23:38:19.737Z,20.17
2019-02-05T23:40:51.592Z,20.15
2019-02-05T23:43:22.599Z,18.07
2019-02-05T23:46:01.389Z,18.73
2019-02-05T23:48:28.401Z,17.80
2019-02-05T23:50:59.475Z,18.57
2019-02-05T23:53:31.079Z,20.97
2019-02-05T23:56:02.423Z,23.20
2019-02-05T23:58:33.796Z,21.90
